createdAt,value
2022-12-15T00:02:35.968Z,1.77
2022-12-15T00:05:22.512Z,1.66
2022-12-15T00:08:08.356Z,1.63
2022-12-15T00:10:54.590Z,1.61
2022-12-15T00:13:40.569Z,1.61
2022-12-15T00:16:26.564Z,1.51
2022-12-15T00:19:13.056Z,1.31
2022-12-15T00:21:58.895Z,1.35
2022-12-15T00:24:44.706Z,1.41
2022-12-15T00:27:35.398Z,1.63
2022-12-15T00:30:22.817Z,1.35
2022-12-15T00:33:08.768Z,1.35
2022-12-15T00:35:54.882Z,1.54
2022-12-15T00:38:41.555Z,1.50
2022-12-15T00:41:09.683Z,1.31
2022-12-15T00:43:38.064Z,1.24
2022-12-15T00:46:25.686Z,1.47
2022-12-15T00:48:53.122Z,1.43
2022-12-15T00:51:20.884Z,1.18
2022-12-15T00:54:06.990Z,1.30
2022-12-15T00:56:52.865Z,1.14
2022-12-15T00:59:38.621Z,1.13
2022-12-15T01:02:24.756Z,1.14
2022-12-15T01:05:10.872Z,1.10
2022-12-15T01:07:56.799Z,1.01
2022-12-15T01:10:42.373Z,0.97
2022-12-15T01:13:32.069Z,1.28
2022-12-15T01:16:18.218Z,1.16
2022-12-15T01:19:04.166Z,1.28
2022-12-15T01:21:32.231Z,1.23
2022-12-15T01:23:59.473Z,1.22
2022-12-15T01:26:26.744Z,1.23
2022-12-15T01:28:53.989Z,1.41
2022-12-15T01:31:21.312Z,1.20
2022-12-15T01:33:48.583Z,1.06
2022-12-15T01:36:16.025Z,0.97
2022-12-15T01:38:43.291Z,0.69
2022-12-15T01:41:12.459Z,0.87
2022-12-15T01:43:41.123Z,0.92
2022-12-15T01:46:11.096Z,1.05
2022-12-15T01:48:46.838Z,1.03
2022-12-15T01:51:33.239Z,1.03
2022-12-15T01:54:10.148Z,1.12
2022-12-15T01:56:40.550Z,1.04
2022-12-15T01:59:09.563Z,1.27
2022-12-15T02:01:37.152Z,1.12
2022-12-15T02:04:04.613Z,1.20
2022-12-15T02:06:31.888Z,1.18
2022-12-15T02:08:59.708Z,1.10
2022-12-15T02:11:51.850Z,1.00
2022-12-15T02:14:26.192Z,0.99
2022-12-15T02:17:06.550Z,1.04
2022-12-15T02:19:55.243Z,0.76
2022-12-15T02:22:25.839Z,0.92
2022-12-15T02:25:05.994Z,1.01
2022-12-15T02:28:10.235Z,0.94
2022-12-15T02:31:31.337Z,0.49
2022-12-15T02:34:06.383Z,0.47
2022-12-15T02:36:39.653Z,0.58
2022-12-15T02:39:07.110Z,0.48
2022-12-15T02:41:45.908Z,0.29
2022-12-15T02:44:19.516Z,0.21
2022-12-15T02:47:02.005Z,0.14
2022-12-15T02:49:51.356Z,0.05
2022-12-15T02:52:36.950Z,0.08
2022-12-15T02:55:19.293Z,0.26
2022-12-15T02:57:59.421Z,0.17
2022-12-15T03:00:28.291Z,0.06
2022-12-15T03:02:56.076Z,-0.16
2022-12-15T03:05:24.663Z,0.13
2022-12-15T03:07:53.462Z,0.09
2022-12-15T03:10:23.806Z,0.09
2022-12-15T03:12:51.708Z,-0.26
2022-12-15T03:15:19.447Z,-0.14
2022-12-15T03:17:47.616Z,0.18
2022-12-15T03:20:15.112Z,0.03
2022-12-15T03:22:42.592Z,0.38
2022-12-15T03:25:10.279Z,0.10
2022-12-15T03:27:37.866Z,0.33
2022-12-15T03:30:05.932Z,0.17
2022-12-15T03:32:33.171Z,0.05
2022-12-15T03:35:01.104Z,0.08
2022-12-15T03:37:28.665Z,0.02
2022-12-15T03:39:56.132Z,0.16
2022-12-15T03:42:42.443Z,0.16
2022-12-15T03:45:09.760Z,0.12
2022-12-15T03:47:41.854Z,-0.08
2022-12-15T03:50:10.075Z,-0.28
2022-12-15T03:52:37.390Z,-0.26
2022-12-15T03:55:05.240Z,-0.01
2022-12-15T03:57:32.476Z,0.16
2022-12-15T03:59:59.870Z,0.26
2022-12-15T04:02:27.541Z,0.24
2022-12-15T04:04:55.063Z,0.05
2022-12-15T04:07:22.355Z,0.09
2022-12-15T04:09:49.702Z,0.05
2022-12-15T04:12:16.991Z,-0.03
2022-12-15T04:14:44.217Z,-0.13
2022-12-15T04:17:12.433Z,-0.18
2022-12-15T04:20:00.099Z,-0.33
2022-12-15T04:22:27.394Z,-0.05
2022-12-15T04:25:13.496Z,0.14
2022-12-15T04:28:01.659Z,0.02
2022-12-15T04:30:49.449Z,-0.09
2022-12-15T04:33:35.694Z,-0.31
2022-12-15T04:36:22.713Z,-0.18
2022-12-15T04:39:09.194Z,-0.11
2022-12-15T04:41:55.231Z,0.06
2022-12-15T04:44:41.674Z,-0.03
2022-12-15T04:47:27.599Z,0.06
2022-12-15T04:50:14.033Z,0.15
2022-12-15T04:52:59.883Z,0.21
2022-12-15T04:55:45.794Z,0.22
2022-12-15T04:58:31.438Z,0.19
2022-12-15T05:01:17.603Z,0.16
2022-12-15T05:04:03.881Z,0.45
2022-12-15T05:06:49.786Z,-0.22
2022-12-15T05:09:35.661Z,-0.29
2022-12-15T05:12:21.963Z,-0.41
2022-12-15T05:15:07.610Z,-0.26
2022-12-15T05:17:53.152Z,-0.22
2022-12-15T05:20:39.004Z,-0.39
2022-12-15T05:23:24.938Z,0.00
2022-12-15T05:26:10.619Z,0.23
2022-12-15T05:28:56.693Z,0.20
2022-12-15T05:31:42.587Z,0.04
2022-12-15T05:34:09.962Z,0.34
2022-12-15T05:36:37.308Z,0.20
2022-12-15T05:39:04.966Z,-0.16
2022-12-15T05:41:32.145Z,-0.09
2022-12-15T05:43:59.588Z,-0.01
2022-12-15T05:46:26.853Z,0.15
2022-12-15T05:48:54.162Z,0.19
2022-12-15T05:51:21.640Z,0.31
2022-12-15T05:53:49.408Z,0.33
2022-12-15T05:56:16.748Z,0.20
2022-12-15T05:58:45.599Z,0.28
2022-12-15T06:01:15.405Z,0.68
2022-12-15T06:03:42.985Z,0.44
2022-12-15T06:06:11.573Z,0.44
2022-12-15T06:08:41.151Z,0.49
2022-12-15T06:11:10.822Z,0.56
2022-12-15T06:13:38.350Z,0.36
2022-12-15T06:16:26.060Z,0.43
2022-12-15T06:18:55.457Z,0.47
2022-12-15T06:21:29.070Z,0.41
2022-12-15T06:23:57.351Z,0.53
2022-12-15T06:26:27.618Z,0.36
2022-12-15T06:28:59.177Z,0.36
2022-12-15T06:31:26.877Z,0.29
2022-12-15T06:34:01.283Z,0.39
2022-12-15T06:36:30.817Z,0.38
2022-12-15T06:39:00.629Z,0.35
2022-12-15T06:41:30.298Z,0.23
2022-12-15T06:43:58.168Z,0.34
2022-12-15T06:46:26.294Z,0.39
2022-12-15T06:48:53.827Z,0.51
2022-12-15T06:51:21.314Z,0.48
2022-12-15T06:53:48.921Z,0.15
2022-12-15T06:56:30.672Z,-0.03
2022-12-15T06:59:01.817Z,-0.02
2022-12-15T07:01:30.097Z,0.03
2022-12-15T07:04:00.046Z,0.08
2022-12-15T07:06:28.481Z,0.29
2022-12-15T07:08:56.852Z,0.35
2022-12-15T07:11:24.406Z,0.41
2022-12-15T07:13:53.261Z,0.46
2022-12-15T07:16:24.064Z,0.13
2022-12-15T07:18:51.491Z,0.15
2022-12-15T07:21:18.750Z,-0.10
2022-12-15T07:23:54.884Z,-0.20
2022-12-15T07:26:23.674Z,-0.11
2022-12-15T07:28:51.334Z,0.05
2022-12-15T07:31:18.621Z,0.11
2022-12-15T07:33:48.489Z,0.00
2022-12-15T07:36:16.061Z,-0.22
2022-12-15T07:38:49.966Z,-0.11
2022-12-15T07:41:19.290Z,0.14
2022-12-15T07:43:47.872Z,-0.05
2022-12-15T07:46:16.071Z,-0.07
2022-12-15T07:48:43.496Z,0.22
2022-12-15T07:51:15.553Z,0.20
2022-12-15T07:53:47.577Z,0.36
2022-12-15T07:56:15.383Z,0.28
2022-12-15T07:58:42.866Z,0.54
2022-12-15T08:01:12.479Z,0.88
2022-12-15T08:03:40.437Z,0.58
2022-12-15T08:06:12.648Z,0.41
2022-12-15T08:08:40.659Z,0.31
2022-12-15T08:11:11.441Z,0.51
2022-12-15T08:16:27.518Z,1.15
2022-12-15T08:18:57.053Z,1.11
2022-12-15T08:21:24.587Z,1.03
2022-12-15T08:23:51.846Z,0.97
2022-12-15T08:26:22.657Z,0.90
2022-12-15T08:28:54.337Z,0.70
2022-12-15T08:31:23.130Z,0.46
2022-12-15T08:33:50.949Z,0.33
2022-12-15T08:36:19.514Z,0.28
2022-12-15T08:38:47.408Z,0.35
2022-12-15T08:41:16.054Z,0.49
2022-12-15T08:43:48.606Z,0.77
2022-12-15T08:46:18.343Z,-0.02
2022-12-15T08:48:46.183Z,0.02
2022-12-15T08:51:13.700Z,0.16
2022-12-15T08:53:41.084Z,0.36
2022-12-15T08:56:15.804Z,0.60
2022-12-15T08:58:43.820Z,0.79
2022-12-15T09:01:23.368Z,0.74
2022-12-15T09:03:53.863Z,0.78
2022-12-15T09:06:27.213Z,0.72
2022-12-15T09:08:59.895Z,0.56
2022-12-15T09:11:29.115Z,0.67
2022-12-15T09:13:57.156Z,0.76
2022-12-15T09:16:26.435Z,0.86
2022-12-15T09:18:55.621Z,0.68
2022-12-15T09:21:26.105Z,0.65
2022-12-15T09:23:55.495Z,0.71
2022-12-15T09:26:23.669Z,0.65
2022-12-15T09:28:52.036Z,0.65
2022-12-15T09:31:22.569Z,0.75
2022-12-15T09:33:51.941Z,0.87
2022-12-15T09:36:19.571Z,1.06
2022-12-15T09:38:46.864Z,1.01
2022-12-15T09:41:14.923Z,1.20
2022-12-15T09:43:54.678Z,0.85
2022-12-15T09:47:01.156Z,0.82
2022-12-15T09:49:37.108Z,0.60
2022-12-15T09:52:10.979Z,0.75
2022-12-15T09:54:41.752Z,1.04
2022-12-15T09:57:28.128Z,1.21
2022-12-15T10:00:07.907Z,1.27
2022-12-15T10:02:57.100Z,0.92
2022-12-15T10:06:07.274Z,0.99
2022-12-15T10:08:23.406Z,0.82
2022-12-15T10:11:01.568Z,0.81
2022-12-15T10:13:35.777Z,0.58
2022-12-15T10:16:16.984Z,0.70
2022-12-15T10:19:01.935Z,0.85
2022-12-15T10:21:50.397Z,0.83
2022-12-15T10:24:44.435Z,0.92
2022-12-15T10:27:20.968Z,1.17
2022-12-15T10:30:11.649Z,1.42
2022-12-15T10:33:14.594Z,1.31
2022-12-15T10:35:43.981Z,1.33
2022-12-15T10:41:25.913Z,1.27
2022-12-15T10:43:54.667Z,1.26
2022-12-15T10:46:24.554Z,1.12
2022-12-15T10:48:54.557Z,1.48
2022-12-15T10:51:24.899Z,1.76
2022-12-15T10:54:05.657Z,1.97
2022-12-15T10:56:34.292Z,1.72
2022-12-15T10:59:21.467Z,1.56
2022-12-15T11:01:49.135Z,1.48
2022-12-15T11:04:32.220Z,1.51
2022-12-15T11:07:02.187Z,1.25
2022-12-15T11:09:37.502Z,1.55
2022-12-15T11:12:36.072Z,1.71
2022-12-15T11:15:23.541Z,1.60
2022-12-15T11:18:01.015Z,1.52
2022-12-15T11:20:33.878Z,1.36
2022-12-15T11:23:38.343Z,1.49
2022-12-15T11:26:18.563Z,1.29
2022-12-15T11:28:56.156Z,1.49
2022-12-15T11:31:41.082Z,1.60
2022-12-15T11:34:14.010Z,1.68
2022-12-15T11:36:53.375Z,1.47
2022-12-15T11:39:26.853Z,1.20
2022-12-15T11:42:03.728Z,1.42
2022-12-15T11:44:42.225Z,1.53
2022-12-15T11:47:33.898Z,1.45
2022-12-15T11:50:24.394Z,1.43
2022-12-15T11:53:07.173Z,1.36
2022-12-15T11:55:49.924Z,1.40
2022-12-15T11:58:36.632Z,1.47
2022-12-15T12:01:03.982Z,1.39
2022-12-15T12:04:02.235Z,1.57
2022-12-15T12:06:35.509Z,1.61
2022-12-15T12:09:13.870Z,1.84
2022-12-15T12:11:54.053Z,1.80
2022-12-15T12:15:09.533Z,1.86
2022-12-15T12:17:55.515Z,1.84
2022-12-15T12:20:25.148Z,1.92
2022-12-15T12:23:02.531Z,1.94
2022-12-15T12:25:31.688Z,1.83
2022-12-15T12:28:02.336Z,1.87
2022-12-15T12:30:35.603Z,1.98
2022-12-15T12:33:14.235Z,1.99
2022-12-15T12:35:56.642Z,1.99
2022-12-15T12:38:31.415Z,1.92
2022-12-15T12:40:59.680Z,1.99
2022-12-15T12:43:42.210Z,2.05
2022-12-15T12:46:24.272Z,2.11
2022-12-15T12:48:57.432Z,4.51
2022-12-15T12:51:36.519Z,3.34
2022-12-15T12:54:30.859Z,2.65
2022-12-15T12:56:58.732Z,2.26
2022-12-15T12:59:29.144Z,2.32
2022-12-15T13:01:57.792Z,2.47
2022-12-15T13:04:28.215Z,2.40
2022-12-15T13:06:55.522Z,2.43
2022-12-15T13:09:25.154Z,2.34
2022-12-15T13:11:58.567Z,2.40
2022-12-15T13:14:44.771Z,2.19
2022-12-15T13:17:39.240Z,2.40
2022-12-15T13:20:17.913Z,2.08
2022-12-15T13:22:45.371Z,2.11
2022-12-15T13:25:36.975Z,2.16
2022-12-15T13:28:39.753Z,2.35
2022-12-15T13:31:16.530Z,2.50
2022-12-15T13:33:50.223Z,2.29
2022-12-15T13:36:39.386Z,2.18
2022-12-15T13:39:12.558Z,2.02
2022-12-15T13:42:31.540Z,2.25
2022-12-15T13:44:48.771Z,2.43
2022-12-15T13:47:23.373Z,2.55
2022-12-15T13:50:02.362Z,2.57
2022-12-15T13:53:08.587Z,2.60
2022-12-15T13:55:28.199Z,2.60
2022-12-15T13:58:17.447Z,2.39
2022-12-15T14:00:53.451Z,2.27
2022-12-15T14:03:21.355Z,2.26
2022-12-15T14:05:57.153Z,2.33
2022-12-15T14:08:28.845Z,2.38
2022-12-15T14:10:58.540Z,2.55
2022-12-15T14:13:29.887Z,2.41
2022-12-15T14:16:04.969Z,2.42
2022-12-15T14:18:34.533Z,2.47
2022-12-15T14:21:05.661Z,2.44
2022-12-15T14:24:11.042Z,2.47
2022-12-15T14:26:32.101Z,2.62
2022-12-15T14:29:05.017Z,2.58
2022-12-15T14:31:32.386Z,2.48
2022-12-15T14:34:07.551Z,2.35
2022-12-15T14:36:35.574Z,2.46
2022-12-15T14:39:11.946Z,2.37
2022-12-15T14:41:44.599Z,2.42
2022-12-15T14:44:32.256Z,2.24
2022-12-15T14:47:08.589Z,2.36
2022-12-15T14:49:41.499Z,2.50
2022-12-15T14:52:34.167Z,2.50
2022-12-15T14:55:22.689Z,2.43
2022-12-15T14:57:52.356Z,2.48
2022-12-15T15:00:35.763Z,2.59
2022-12-15T15:06:11.078Z,2.75
2022-12-15T15:08:50.022Z,2.62
2022-12-15T15:11:33.784Z,2.65
2022-12-15T15:14:06.088Z,2.65
2022-12-15T15:16:34.190Z,2.87
2022-12-15T15:19:02.920Z,2.87
2022-12-15T15:21:33.438Z,2.78
2022-12-15T15:24:04.807Z,2.81
2022-12-15T15:26:32.198Z,2.69
2022-12-15T15:28:59.628Z,2.53
2022-12-15T15:31:41.582Z,2.64
2022-12-15T15:34:09.245Z,2.58
2022-12-15T15:36:38.565Z,2.58
2022-12-15T15:39:24.077Z,2.65
2022-12-15T15:41:51.255Z,2.62
2022-12-15T15:44:18.639Z,2.63
2022-12-15T15:46:51.068Z,2.64
2022-12-15T15:49:20.853Z,2.53
2022-12-15T15:51:48.252Z,2.74
2022-12-15T15:54:18.082Z,2.76
2022-12-15T15:56:45.397Z,2.57
2022-12-15T15:59:14.585Z,2.54
2022-12-15T16:01:42.842Z,2.67
2022-12-15T16:04:10.371Z,2.73
2022-12-15T16:06:42.080Z,2.80
2022-12-15T16:09:14.724Z,2.70
2022-12-15T16:11:41.959Z,2.84
2022-12-15T16:14:12.942Z,2.91
2022-12-15T16:16:42.117Z,2.82
2022-12-15T16:19:12.099Z,2.80
2022-12-15T16:21:40.250Z,2.83
2022-12-15T16:24:10.918Z,2.78
2022-12-15T16:26:38.964Z,2.68
2022-12-15T16:29:16.766Z,2.68
2022-12-15T16:31:45.817Z,2.73
2022-12-15T16:34:16.489Z,2.76
2022-12-15T16:36:44.059Z,2.75
2022-12-15T16:39:37.921Z,2.81
2022-12-15T16:42:06.188Z,2.86
2022-12-15T16:44:33.426Z,2.97
2022-12-15T16:47:00.782Z,2.75
2022-12-15T16:49:33.836Z,2.68
2022-12-15T16:52:05.666Z,2.78
2022-12-15T16:54:32.967Z,2.79
2022-12-15T16:57:00.295Z,2.89
2022-12-15T16:59:35.886Z,2.40
2022-12-15T17:02:27.448Z,2.37
2022-12-15T17:04:55.645Z,2.35
2022-12-15T17:07:24.670Z,2.45
2022-12-15T17:09:52.022Z,2.62
2022-12-15T17:12:19.779Z,2.57
2022-12-15T17:14:47.158Z,2.74
2022-12-15T17:17:16.330Z,2.77
2022-12-15T17:19:58.034Z,2.66
2022-12-15T17:22:26.393Z,2.53
2022-12-15T17:24:53.744Z,2.51
2022-12-15T17:27:28.646Z,2.39
2022-12-15T17:29:56.946Z,2.34
2022-12-15T17:32:24.294Z,2.51
2022-12-15T17:34:51.973Z,2.52
2022-12-15T17:37:19.224Z,2.45
2022-12-15T17:39:50.953Z,2.61
2022-12-15T17:42:20.768Z,2.63
2022-12-15T17:44:48.768Z,2.81
2022-12-15T17:47:16.767Z,2.67
2022-12-15T17:49:44.324Z,2.48
2022-12-15T17:52:31.452Z,2.55
2022-12-15T17:55:00.453Z,2.57
2022-12-15T17:57:31.453Z,2.47
2022-12-15T17:59:59.608Z,2.35
2022-12-15T18:02:27.198Z,2.36
2022-12-15T18:04:55.305Z,2.35
2022-12-15T18:07:23.755Z,2.02
2022-12-15T18:09:52.185Z,2.17
2022-12-15T18:12:26.912Z,2.20
2022-12-15T18:14:55.428Z,2.24
2022-12-15T18:17:23.866Z,2.24
2022-12-15T18:19:51.363Z,2.35
2022-12-15T18:22:22.452Z,2.36
2022-12-15T18:24:51.414Z,2.29
2022-12-15T18:27:25.797Z,2.20
2022-12-15T18:29:53.443Z,2.10
2022-12-15T18:32:23.698Z,1.92
2022-12-15T18:34:52.351Z,1.86
2022-12-15T18:37:21.389Z,2.11
2022-12-15T18:39:49.982Z,2.18
2022-12-15T18:42:21.500Z,2.09
2022-12-15T18:44:51.459Z,1.98
2022-12-15T18:47:19.545Z,1.84
2022-12-15T18:49:46.902Z,1.89
2022-12-15T18:52:18.694Z,1.97
2022-12-15T18:54:50.170Z,2.11
2022-12-15T18:57:36.484Z,2.02
2022-12-15T19:00:13.072Z,2.00
2022-12-15T19:02:41.539Z,1.90
2022-12-15T19:05:27.758Z,1.74
2022-12-15T19:08:10.164Z,1.79
2022-12-15T19:10:56.052Z,1.93
2022-12-15T19:13:26.036Z,1.93
2022-12-15T19:15:53.491Z,2.00
2022-12-15T19:18:42.238Z,2.05
2022-12-15T19:21:42.433Z,2.04
2022-12-15T19:24:49.490Z,1.86
2022-12-15T19:27:23.255Z,1.92
2022-12-15T19:29:50.805Z,1.91
2022-12-15T19:32:18.108Z,1.86
2022-12-15T19:34:45.667Z,1.86
2022-12-15T19:37:28.613Z,2.00
2022-12-15T19:39:57.682Z,1.94
2022-12-15T19:42:30.336Z,2.06
2022-12-15T19:44:57.646Z,2.11
2022-12-15T19:47:25.579Z,2.04
2022-12-15T19:49:53.102Z,2.03
2022-12-15T19:52:22.524Z,1.84
2022-12-15T19:54:50.169Z,1.94
2022-12-15T19:57:18.900Z,2.01
2022-12-15T19:59:46.169Z,1.73
2022-12-15T20:02:17.815Z,1.87
2022-12-15T20:04:45.796Z,1.84
2022-12-15T20:07:27.110Z,1.81
2022-12-15T20:09:56.181Z,1.88
2022-12-15T20:12:23.806Z,1.86
2022-12-15T20:14:52.021Z,1.59
2022-12-15T20:17:19.490Z,1.78
2022-12-15T20:19:46.801Z,1.77
2022-12-15T20:22:15.047Z,1.69
2022-12-15T20:24:42.810Z,1.84
2022-12-15T20:27:14.729Z,1.84
2022-12-15T20:29:42.172Z,1.87
2022-12-15T20:32:19.417Z,1.85
2022-12-15T20:34:47.332Z,1.91
2022-12-15T20:37:18.953Z,2.07
2022-12-15T20:39:46.215Z,1.92
2022-12-15T20:42:19.294Z,1.93
2022-12-15T20:44:46.610Z,2.09
2022-12-15T20:47:22.982Z,2.00
2022-12-15T20:50:01.925Z,2.07
2022-12-15T20:52:29.450Z,1.98
2022-12-15T20:54:56.747Z,2.13
2022-12-15T20:57:24.124Z,2.00
2022-12-15T20:59:52.582Z,2.19
2022-12-15T21:02:23.972Z,1.96
2022-12-15T21:04:51.470Z,1.93
2022-12-15T21:07:18.852Z,2.05
2022-12-15T21:09:46.169Z,1.96
2022-12-15T21:12:21.813Z,1.77
2022-12-15T21:14:49.089Z,2.07
2022-12-15T21:17:25.702Z,2.10
2022-12-15T21:19:53.085Z,1.89
2022-12-15T21:22:24.267Z,1.98
2022-12-15T21:24:53.686Z,2.05
2022-12-15T21:27:22.142Z,1.79
2022-12-15T21:29:52.700Z,1.96
2022-12-15T21:32:21.056Z,1.93
2022-12-15T21:34:49.861Z,2.03
2022-12-15T21:37:22.769Z,2.09
2022-12-15T21:39:50.156Z,1.99
2022-12-15T21:42:18.763Z,2.00
2022-12-15T21:44:46.151Z,2.17
2022-12-15T21:47:47.545Z,2.20
2022-12-15T21:50:18.891Z,1.99
2022-12-15T21:52:46.608Z,2.07
2022-12-15T21:55:18.548Z,2.02
2022-12-15T21:57:45.772Z,1.68
2022-12-15T22:00:15.500Z,1.97
2022-12-15T22:02:43.573Z,2.12
2022-12-15T22:05:18.379Z,1.95
2022-12-15T22:07:45.837Z,2.07
2022-12-15T22:10:13.610Z,2.12
2022-12-15T22:12:43.851Z,2.07
2022-12-15T22:15:19.685Z,2.04
2022-12-15T22:17:48.646Z,1.75
2022-12-15T22:20:20.239Z,1.86
2022-12-15T22:22:47.897Z,1.84
2022-12-15T22:25:28.669Z,1.94
2022-12-15T22:27:56.410Z,2.12
2022-12-15T22:30:25.676Z,2.04
2022-12-15T22:32:53.886Z,1.96
2022-12-15T22:35:24.610Z,1.88
2022-12-15T22:37:56.333Z,1.92
2022-12-15T22:40:24.249Z,2.00
2022-12-15T22:42:55.103Z,1.86
2022-12-15T22:45:24.159Z,2.00
2022-12-15T22:47:52.444Z,2.10
2022-12-15T22:50:22.202Z,1.82
2022-12-15T22:52:50.426Z,2.05
2022-12-15T22:55:19.780Z,1.86
2022-12-15T22:57:50.513Z,1.77
2022-12-15T23:00:18.086Z,1.93
2022-12-15T23:02:46.602Z,1.92
2022-12-15T23:05:17.158Z,1.93
2022-12-15T23:07:44.904Z,1.91
2022-12-15T23:10:34.129Z,1.64
2022-12-15T23:13:01.418Z,1.68
2022-12-15T23:15:47.480Z,1.76
2022-12-15T23:18:15.186Z,1.86
2022-12-15T23:20:42.869Z,1.83
2022-12-15T23:23:10.134Z,1.81
2022-12-15T23:25:37.408Z,2.02
2022-12-15T23:28:05.484Z,2.09
2022-12-15T23:30:32.688Z,2.15
2022-12-15T23:33:00.016Z,1.74
2022-12-15T23:35:27.279Z,1.62
2022-12-15T23:37:54.541Z,1.75
2022-12-15T23:40:22.772Z,1.81
2022-12-15T23:42:50.681Z,1.76
2022-12-15T23:45:18.467Z,1.37
2022-12-15T23:47:45.778Z,1.47
2022-12-15T23:50:13.154Z,1.41
2022-12-15T23:52:40.737Z,1.52
2022-12-15T23:55:10.208Z,1.66
2022-12-15T23:57:38.393Z,1.74
